createdAt,value
2023-09-15T00:04:47.561Z,6.15
2023-09-15T00:09:49.408Z,6.13
2023-09-15T00:14:51.021Z,7.18
2023-09-15T00:19:52.594Z,7.07
2023-09-15T00:24:56.859Z,9.18
2023-09-15T00:29:58.457Z,6.82
2023-09-15T00:35:00.027Z,6.72
2023-09-15T00:40:01.905Z,7.30
2023-09-15T00:45:06.955Z,8.38
2023-09-15T00:50:09.990Z,8.57
2023-09-15T00:55:15.153Z,8.13
2023-09-15T01:00:18.806Z,8.55
2023-09-15T01:05:24.719Z,11.90
2023-09-15T01:10:26.480Z,9.85
2023-09-15T01:15:38.489Z,9.90
2023-09-15T01:21:32.379Z,9.98
2023-09-15T01:27:04.199Z,9.88
2023-09-15T01:32:09.620Z,10.68
2023-09-15T01:37:11.274Z,11.00
2023-09-15T01:42:12.964Z,11.80
2023-09-15T01:47:23.114Z,9.85
2023-09-15T01:52:24.987Z,11.43
2023-09-15T01:57:26.849Z,13.35
2023-09-15T02:02:28.772Z,11.65
2023-09-15T02:07:30.531Z,12.00
2023-09-15T02:12:32.142Z,12.55
2023-09-15T02:17:33.771Z,11.45
2023-09-15T02:22:35.369Z,11.18
2023-09-15T02:27:40.913Z,11.17
2023-09-15T02:32:42.544Z,13.02
2023-09-15T02:37:44.163Z,10.88
2023-09-15T02:42:45.765Z,11.85
2023-09-15T02:47:47.392Z,11.57
2023-09-15T02:52:49.577Z,11.65
2023-09-15T02:57:56.012Z,11.52
2023-09-15T03:02:58.228Z,11.05
2023-09-15T03:07:59.856Z,12.30
2023-09-15T03:13:03.832Z,14.23
2023-09-15T03:18:05.829Z,13.98
2023-09-15T03:23:07.523Z,12.73
2023-09-15T03:28:10.833Z,12.60
2023-09-15T03:33:12.404Z,14.73
2023-09-15T03:38:13.976Z,16.80
2023-09-15T03:43:15.647Z,14.57
2023-09-15T03:48:17.321Z,14.55
2023-09-15T03:53:18.877Z,15.13
2023-09-15T03:58:20.470Z,15.10
2023-09-15T04:03:22.436Z,14.30
2023-09-15T04:08:24.212Z,16.38
2023-09-15T04:13:25.791Z,16.23
2023-09-15T04:18:28.155Z,19.60
2023-09-15T04:28:31.201Z,16.45
2023-09-15T04:33:32.869Z,22.27
2023-09-15T04:38:34.489Z,16.80
2023-09-15T04:43:37.097Z,17.90
2023-09-15T04:48:38.670Z,18.85
2023-09-15T04:53:40.887Z,16.10
2023-09-15T04:58:46.465Z,18.83
2023-09-15T05:03:48.416Z,15.65
2023-09-15T05:08:50.091Z,15.55
2023-09-15T05:13:51.749Z,20.30
2023-09-15T05:18:53.412Z,17.97
2023-09-15T05:23:54.987Z,14.68
2023-09-15T05:28:56.591Z,13.03
2023-09-15T05:33:59.072Z,12.73
2023-09-15T05:39:00.624Z,13.48
2023-09-15T05:44:02.199Z,10.50
2023-09-15T05:49:03.992Z,12.55
2023-09-15T05:54:05.714Z,12.25
2023-09-15T05:59:07.796Z,13.70
2023-09-15T06:09:13.145Z,9.52
2023-09-15T06:14:14.720Z,9.48
2023-09-15T06:19:16.412Z,15.80
2023-09-15T06:24:18.039Z,11.18
2023-09-15T06:29:19.745Z,9.73
2023-09-15T06:39:24.783Z,8.20
2023-09-15T06:44:26.565Z,8.40
2023-09-15T06:49:29.021Z,8.73
2023-09-15T06:54:30.625Z,8.93
2023-09-15T06:59:32.268Z,18.60
2023-09-15T07:04:34.197Z,12.05
2023-09-15T07:14:37.598Z,9.07
2023-09-15T07:19:39.448Z,8.30
2023-09-15T07:29:43.874Z,7.95
2023-09-15T07:34:46.004Z,9.13
2023-09-15T07:39:47.836Z,10.40
2023-09-15T07:44:49.498Z,9.70
2023-09-15T07:49:51.202Z,10.82
2023-09-15T07:54:53.400Z,8.77
2023-09-15T07:59:55.014Z,12.60
2023-09-15T08:04:56.595Z,10.50
2023-09-15T08:09:58.299Z,13.32
2023-09-15T08:14:59.912Z,9.95
2023-09-15T08:20:02.595Z,10.18
2023-09-15T08:25:05.188Z,9.93
2023-09-15T08:30:10.857Z,9.70
2023-09-15T08:35:12.483Z,10.68
2023-09-15T08:40:14.118Z,11.25
2023-09-15T08:45:16.116Z,10.30
2023-09-15T08:55:20.232Z,11.20
2023-09-15T09:00:23.975Z,11.95
2023-09-15T09:05:26.121Z,10.75
2023-09-15T09:15:33.551Z,9.38
2023-09-15T09:20:36.194Z,10.75
2023-09-15T09:25:37.972Z,11.65
2023-09-15T09:35:41.250Z,8.77
2023-09-15T09:40:43.036Z,10.05
2023-09-15T09:50:50.873Z,10.02
2023-09-15T10:00:55.119Z,9.65
2023-09-15T10:05:57.319Z,7.72
2023-09-15T10:10:59.680Z,7.85
2023-09-15T10:16:01.295Z,9.07
2023-09-15T10:21:03.989Z,8.50
2023-09-15T10:26:10.420Z,8.35
2023-09-15T10:31:13.881Z,7.32
2023-09-15T10:36:16.773Z,5.28
2023-09-15T10:41:25.074Z,7.57
2023-09-15T10:46:43.829Z,6.38
2023-09-15T10:51:56.915Z,7.05
2023-09-15T10:56:59.561Z,5.97
2023-09-15T11:02:01.337Z,5.43
2023-09-15T11:12:07.899Z,7.45
2023-09-15T11:22:12.455Z,5.25
2023-09-15T11:27:16.687Z,6.75
2023-09-15T11:32:18.379Z,4.78
2023-09-15T11:37:19.997Z,10.02
2023-09-15T11:42:22.351Z,5.55
2023-09-15T11:47:24.279Z,4.80
2023-09-15T11:52:26.683Z,4.10
2023-09-15T11:57:28.817Z,4.97
2023-09-15T12:02:30.634Z,5.22
2023-09-15T12:12:34.153Z,4.38
2023-09-15T12:22:42.933Z,6.13
2023-09-15T12:27:44.646Z,4.45
2023-09-15T12:37:50.228Z,4.43
2023-09-15T12:42:51.927Z,4.20
2023-09-15T12:52:55.769Z,4.95
2023-09-15T12:57:57.370Z,4.97
2023-09-15T13:02:59.174Z,4.30
2023-09-15T13:08:00.804Z,7.78
2023-09-15T13:13:02.340Z,4.55
2023-09-15T13:18:04.372Z,4.72
2023-09-15T13:23:06.029Z,5.55
2023-09-15T13:28:07.740Z,5.18
2023-09-15T13:38:11.494Z,5.25
2023-09-15T13:43:13.168Z,4.25
2023-09-15T13:48:17.092Z,4.80
2023-09-15T13:53:19.306Z,4.50
2023-09-15T13:58:21.215Z,5.38
2023-09-15T14:03:24.362Z,4.30
2023-09-15T14:08:26.603Z,4.93
2023-09-15T14:13:28.434Z,5.00
2023-09-15T14:18:30.279Z,5.57
2023-09-15T14:23:32.779Z,4.68
2023-09-15T14:28:34.787Z,4.93
2023-09-15T14:33:36.808Z,5.82
2023-09-15T14:38:39.139Z,4.15
2023-09-15T14:43:42.917Z,5.88
2023-09-15T14:48:51.241Z,4.60
2023-09-15T14:53:53.722Z,4.55
2023-09-15T14:58:56.926Z,5.32
2023-09-15T15:03:59.040Z,4.28
2023-09-15T15:09:01.269Z,7.60
2023-09-15T15:14:03.788Z,4.20
2023-09-15T15:19:07.180Z,4.80
2023-09-15T15:24:10.154Z,4.05
2023-09-15T15:29:12.509Z,4.70
2023-09-15T15:34:15.114Z,4.93
2023-09-15T15:39:17.335Z,5.15
2023-09-15T15:44:24.899Z,15.52
2023-09-15T15:49:29.234Z,4.78
2023-09-15T15:54:33.596Z,8.82
2023-09-15T15:59:35.993Z,6.82
2023-09-15T16:04:38.353Z,7.63
2023-09-15T16:09:40.684Z,8.85
2023-09-15T16:14:42.992Z,6.72
2023-09-15T16:19:45.606Z,5.28
2023-09-15T16:24:48.118Z,8.30
2023-09-15T16:29:50.899Z,4.70
2023-09-15T16:34:55.802Z,6.10
2023-09-15T16:40:00.165Z,6.65
2023-09-15T16:45:05.009Z,6.70
2023-09-15T16:50:10.256Z,8.57
2023-09-15T16:55:15.779Z,5.65
2023-09-15T17:00:19.526Z,7.72
2023-09-15T17:05:22.998Z,5.97
2023-09-15T17:10:26.127Z,6.88
2023-09-15T17:15:29.237Z,7.20
2023-09-15T17:20:34.328Z,5.70
2023-09-15T17:25:38.100Z,9.30
2023-09-15T17:30:41.983Z,6.72
2023-09-15T17:35:45.296Z,9.38
2023-09-15T17:40:49.048Z,7.28
2023-09-15T17:45:56.281Z,8.50
2023-09-15T17:51:01.075Z,8.13
2023-09-15T17:56:04.900Z,6.70
2023-09-15T18:01:09.315Z,8.27
2023-09-15T18:06:14.355Z,7.70
2023-09-15T18:11:21.849Z,8.27
2023-09-15T18:16:26.195Z,6.75
2023-09-15T18:21:30.252Z,6.63
2023-09-15T18:26:34.454Z,6.60
2023-09-15T18:31:38.162Z,11.20
2023-09-15T18:36:42.443Z,6.10
2023-09-15T18:41:48.952Z,7.40
2023-09-15T18:46:54.630Z,6.40
2023-09-15T18:51:59.949Z,8.05
2023-09-15T18:57:06.028Z,6.95
2023-09-15T19:02:16.025Z,11.68
2023-09-15T19:07:24.008Z,7.93
2023-09-15T19:12:31.115Z,6.70
2023-09-15T19:17:35.645Z,7.10
2023-09-15T19:22:42.502Z,7.72
2023-09-15T19:27:48.218Z,7.80
2023-09-15T19:32:55.109Z,8.68
2023-09-15T19:38:04.273Z,7.97
2023-09-15T19:43:14.296Z,8.38
2023-09-15T19:48:22.062Z,9.60
2023-09-15T19:53:30.754Z,9.85
2023-09-15T19:58:40.478Z,10.70
2023-09-15T20:03:45.065Z,12.13
2023-09-15T20:08:49.643Z,11.35
2023-09-15T20:13:53.289Z,11.32
2023-09-15T20:18:57.341Z,11.82
2023-09-15T20:24:00.763Z,10.50
2023-09-15T20:29:04.986Z,12.02
2023-09-15T20:34:08.834Z,13.50
2023-09-15T20:39:12.944Z,13.20
2023-09-15T20:44:16.752Z,13.63
2023-09-15T20:49:20.791Z,14.80
2023-09-15T20:54:24.257Z,15.10
2023-09-15T20:59:28.274Z,15.43
2023-09-15T21:04:30.129Z,16.73
2023-09-15T21:09:31.892Z,18.08
2023-09-15T21:14:33.718Z,18.45
2023-09-15T21:19:35.389Z,18.75
2023-09-15T21:24:37.183Z,19.27
2023-09-15T21:29:38.891Z,17.92
2023-09-15T21:34:40.676Z,20.65
2023-09-15T21:39:42.318Z,19.83
2023-09-15T21:44:43.983Z,22.13
2023-09-15T21:49:45.780Z,20.88
2023-09-15T21:54:47.438Z,21.17
2023-09-15T21:59:49.244Z,20.58
2023-09-15T22:04:50.913Z,19.52
2023-09-15T22:09:52.514Z,17.90
2023-09-15T22:14:54.716Z,20.20
2023-09-15T22:25:02.012Z,17.98
2023-09-15T22:30:04.576Z,18.50
2023-09-15T22:35:07.913Z,19.50
2023-09-15T22:40:10.772Z,18.45
2023-09-15T22:45:13.664Z,19.33
2023-09-15T22:50:15.353Z,16.92
2023-09-15T22:55:21.715Z,17.13
2023-09-15T23:00:23.472Z,19.23
2023-09-15T23:05:25.424Z,18.52
2023-09-15T23:10:27.048Z,16.98
2023-09-15T23:15:28.866Z,16.17
2023-09-15T23:20:30.542Z,16.10
2023-09-15T23:25:32.135Z,17.02
2023-09-15T23:30:33.825Z,17.27
2023-09-15T23:35:35.474Z,17.23
2023-09-15T23:40:40.258Z,15.98
2023-09-15T23:45:41.956Z,15.02
2023-09-15T23:50:43.763Z,16.85
2023-09-15T23:55:45.316Z,17.02
